Duke Field,(Eglin Af Aux Nr 3) Airport
KEGI : now visible

Airfield :











YOU CAN JOIN US ON...

 
LOGIN :

Register | Disclaimer

   EN    FR    IT 

 









Legend :    VFR   Marginal VFR   IFR   Intensive IFR   Very Intensive IFR
Visi :
Ceiling :
>= 8 km
>= 3000ft
5 to 8 km
1000 to 3000 ft
1500m to 5 km
500 to 1000 ft
800 to 1500m
200 to 500 ft
< 800m
< 200 ft
Symbols :   Thunderstorms  Fog  Heavy snow  Heavy precipitations  Wind > 20 kt







- Airport Elevation : 191 ft


KEGI - Duke Field,(Eglin Af Aux Nr 3)

CURRENT METAR :
  • 210356Z AUTO 00000KT 10SM CLR 20/18 A3016 RMK AO2 SLP212 T02030184 $

EXPIRED METARs :
  • 210256Z AUTO 00000KT 10SM CLR 22/19 A3016 RMK AO2 SLP212 T02160191 52011 $
  • 210156Z AUTO 00000KT 10SM CLR 23/19 A3014 RMK AO2 SLP206 T02300191 $

TAF TAF KEGI
Valid from the 21 at 01:00 until the 22 at 07:00 UTC


210100Z 2101/2207 11009KT 9999 FEW030 FEW250 QNH3012INS
BECMG 2114/2115 11012KT 9999 SCT030 QNH3015INS
BECMG 2202/2203 11009KT 9999 FEW050 QNH3016INS TX31/2119Z TN19/2111Z LAST NO AMDS AFT 2106 NEXT 2309
No reported NOTAMs for that airfield.



MET'MAP, your aeronautical weather chart ! - Copyright ORBIFLY December 2007 - Disclaimer

ORBIFLY MET'MAP TEAM :

Programming & Development : Alexandra Zaïnal
Concept & Development : Baudouin d'Aumeries
Co-Development & Prog : Marc-Olivier Méhu
Technical & hardware support : Manuel Goepfert

Contact : metmap@orbifly.com




SOURCES & CREDITS :

   NOAA       Earth
Advisory